Sanford, Colorado
Current Conditions -  °F | °C
As of 10:52 PM on Sunday 25 Jan 2015 (Local Time) from KALS Reporting Station
Clear Clear  
Wind Chill:   Ceiling: Unl
Heat Index: 13°   Visibility: 10mi
Dew Point:   Wind: 6mph
Humidity: 84%   Direction: NA
Pressure: 30.36"   Gusts: NA
Location:  37.26°N, 105.9°W
Report Text: KALS 260552Z AUTO VRB05KT 10SM CLR M11/M13 A3036 RMK AO2 SLP306 T11061128 10056 21106 53006
Loading
Personal Weather Stations






























Interactive Weather Map New forecast layout! Learn more

10-Day Weather Forecast

Advertisements
Track Severe Weather on mobile